Ana Sayfa
METAR-TAF:

METAR-TAF

Havaalanları :

Baia Mare, Romanya

Enlem: 47-40N, Boylam: 023-35E, yükseklik: 218 m

Güncel hava durumu gözlemi

Rapor saat 19:30 UTC de 18 dakika önce yapıldı.
Rüzgar değişken yönden 2 kt
Sıcaklık 4°C
Nem 65%
Basınç 1018 hPa
Görüş mesafesi 10 km veya daha fazla
1500 m altında bulut yok ve kümülonimbus yok

METAR: LRBM 191930Z VRB02KT CAVOK 04/M02 Q1018

Saat: 21:48 (19:48 UTC)

Tahmin

Rapor saat 17:00 UTC de 2 saat ve 48 dakika önce yapıldı.
Ayın 19'si saat 18 UTC'den ayın 20'si saat 03 UTC'ye kadar geçerli Tahmin
Rüzgar değişken yönden 3 kt
Görüş mesafesi 10 km veya daha fazla
1500 m altında bulut yok ve kümülonimbus yok
Olasılık 30% :
Geçici
ayın 19'si saat 23 UTC'den ayın 20'si saat 03 UTC'ye kadar
Görüş mesafesi: 5000 m
1500 ft yükseklikte parçalı çok bulutlu
3500 ft yükseklikte çok bulutlu
hafif yağmur, Pus

TAF: LRBM 191700Z 1918/2003 VRB03KT CAVOK PROB30 TEMPO 1923/2003 5000 -RA BR BKN015 OVC035

4.000'den fazla havaalanı için hava durumu gözlemleri ve tahminleri (METAR ve TAF raporları).

Kullanılabilir istasyonlar harita üzerinde sarı ve kırmızı noktalarla gösterilir.

İstasyonun adını görmek için fareyi noktanın üzerinde gezdirin.

Sonrasında hava gözlem ve tahminlerini görmek için tıklayın.

Haritayı değiştirmek için: yaklaştırmak için siyah artı işaretli yeşil düğmeye ve uzaklaştırmak için de eksi işaretli düğmeye hızla tıklayın; bitişik haritalar için yeşil okları kullanın.


METAR-TAF: